Saint Martins, Canada
Current Conditions -  °F | °C
As of 3:00 PM on Thursday 23 Oct 2014 (Local Time) from CYSJ Reporting Station
Overcast Overcast  
Wind Chill: 52°   Ceiling: 1600
Heat Index: 52°   Visibility: 10mi
Dew Point: 48°   Wind: 14mph
Humidity: 88%   Direction: 50°NE
Pressure: 29.94"   Gusts: 21mph
Location:  45.35°N, 65.53°W
Report Text: CYSJ 231800Z 05012G18KT 10SM OVC016 11/09 A2994 RMK SC8 SLP142
Loading
Personal Weather Stations






























Interactive Weather Map
Tropical Storm Tracking
New forecast layout! Learn more

10-Day Weather Forecast

Advertisements
Track Severe Weather on mobile